Pagrindinis puslapis
METAR-TAF:

METAR-TAF

Oro uostai :

Puerto Cabezas, Nikaragva

platuma: 14-03N, ilguma: 083-22W, Aukštis: 20 m

Dabartinis oras

Ataskaita buvo paskelbta 3 valandos ir 43 minutes, ne 23:00 UTC
Vėjas 6 kt iš Rytų
Temperatūra 29°C
Drėgmė 84%
Slėgis 1010 hPa
Matomumas: 7000 m
Su prošvaistėmis ne aukštis 1600 ft
migla

METAR: MNPC 312300Z 08006KT 7000 BKN016 29/26 Q1010 HZ

Laikas: 20:43 (02:43 UTC)

Prognozė

Ataskaita buvo paskelbta 5 valandos ir 43 minutes, ne 21:00 UTC
Prognozė galioja nuo 01 metu 00 UTC su 01 metu 24 UTC
Vėjas 4 kt iš Rytų
Matomumas: 7000 m
Su prošvaistėmis ne aukštis 1600 ft
migla
Nuo 01 metu 0300 UTC
Vėjas 4 kt iš Šiaurės/Šiaurės Vakarų
Matomumas: 8000 m
Išsisklaidę debesys ne aukštis 1800 ft
Tapsmas
nuo 01 metu 13 UTC su 01 metu 18 UTC
Vėjas 10 kt iš Rytų/Šiaurės Rytų

TAF: MNPC 312100Z 0100/0124 08004KT 7000 HZ BKN016 FM010300 33004KT 8000 SCT018 BECMG 0113/0118 06010KT VCRA/HZ

Orai ataskaitas ir orų prognozės (METAR, TAF).

turimą stotys yra geltonos ir raudonos taškus žemėlapyje.

Perkelti pele per norėdami pamatyti stoties vardą.

Tada spustelėkite, norėdami matyti oro stebėjimo ir prognozės.

Norėdami pakeisti žemėlapį: spustelėkite ant žalios mygtukų su juodo kryžiaus žemyn,; žalią mygtuką su brūkšneliu, jei norite nutolinti; arba žalių rodyklių gretimoms žemėlapius.


METAR-TAF: